sensor_id;sensor_type;location;lat;lon;timestamp;pressure;altitude;pressure_sealevel;temperature;humidity
75192;BME280;63771;52.580;9.734;2023-07-16T00:02:22;100506.66;;;20.65;73.79
75192;BME280;63771;52.580;9.734;2023-07-16T00:04:47;100526.56;;;20.66;73.63
75192;BME280;63771;52.580;9.734;2023-07-16T00:07:13;100516.31;;;20.69;73.75
75192;BME280;63771;52.580;9.734;2023-07-16T00:09:38;100525.91;;;20.72;72.94
75192;BME280;63771;52.580;9.734;2023-07-16T00:12:04;100527.69;;;20.73;73.26
75192;BME280;63771;52.580;9.734;2023-07-16T00:14:29;100526.00;;;20.73;73.34
75192;BME280;63771;52.580;9.734;2023-07-16T00:16:54;100530.44;;;20.77;73.21
75192;BME280;63771;52.580;9.734;2023-07-16T00:19:20;100509.66;;;20.76;73.01
75192;BME280;63771;52.580;9.734;2023-07-16T00:21:45;100481.81;;;20.72;72.93
75192;BME280;63771;52.580;9.734;2023-07-16T00:24:10;100478.56;;;20.77;72.83
75192;BME280;63771;52.580;9.734;2023-07-16T00:26:36;100469.16;;;20.79;72.73
75192;BME280;63771;52.580;9.734;2023-07-16T00:29:01;100464.81;;;20.78;72.81
75192;BME280;63771;52.580;9.734;2023-07-16T00:31:26;100475.22;;;20.80;72.47
75192;BME280;63771;52.580;9.734;2023-07-16T00:33:52;100490.06;;;20.84;72.47
75192;BME280;63771;52.580;9.734;2023-07-16T00:36:17;100481.28;;;20.80;72.64
75192;BME280;63771;52.580;9.734;2023-07-16T00:38:42;100472.75;;;20.83;72.53
75192;BME280;63771;52.580;9.734;2023-07-16T00:41:08;100463.00;;;20.77;72.15
75192;BME280;63771;52.580;9.734;2023-07-16T00:43:33;100418.13;;;20.78;72.09
75192;BME280;63771;52.580;9.734;2023-07-16T00:45:58;100467.28;;;20.75;72.80
75192;BME280;63771;52.580;9.734;2023-07-16T00:48:24;100511.22;;;20.72;72.93
75192;BME280;63771;52.580;9.734;2023-07-16T00:50:51;100537.31;;;20.53;73.57
75192;BME280;63771;52.580;9.734;2023-07-16T00:53:18;100543.25;;;20.50;73.36
75192;BME280;63771;52.580;9.734;2023-07-16T00:55:44;100524.16;;;20.48;73.78
75192;BME280;63771;52.580;9.734;2023-07-16T00:58:10;100507.78;;;20.49;73.60
75192;BME280;63771;52.580;9.734;2023-07-16T01:00:37;100513.97;;;20.53;73.71
75192;BME280;63771;52.580;9.734;2023-07-16T01:03:04;100514.81;;;20.52;73.90
75192;BME280;63771;52.580;9.734;2023-07-16T01:05:57;100517.72;;;20.61;73.24
75192;BME280;63771;52.580;9.734;2023-07-16T01:08:29;100532.47;;;20.62;73.43
75192;BME280;63771;52.580;9.734;2023-07-16T01:10:56;100547.19;;;20.63;73.56
75192;BME280;63771;52.580;9.734;2023-07-16T01:13:23;100558.41;;;20.62;73.43
75192;BME280;63771;52.580;9.734;2023-07-16T01:15:49;100568.78;;;20.62;73.24
75192;BME280;63771;52.580;9.734;2023-07-16T01:18:14;100568.78;;;20.62;73.33
75192;BME280;63771;52.580;9.734;2023-07-16T01:20:39;100566.22;;;20.64;73.08
75192;BME280;63771;52.580;9.734;2023-07-16T01:26:25;100560.25;;;20.66;73.16
75192;BME280;63771;52.580;9.734;2023-07-16T01:31:39;100560.88;;;20.59;73.26
75192;BME280;63771;52.580;9.734;2023-07-16T01:34:05;100576.25;;;20.54;73.33
75192;BME280;63771;52.580;9.734;2023-07-16T01:36:31;100587.09;;;20.46;73.25
75192;BME280;63771;52.580;9.734;2023-07-16T01:38:58;100582.19;;;20.31;74.09
75192;BME280;63771;52.580;9.734;2023-07-16T01:41:24;100575.34;;;20.33;73.81
75192;BME280;63771;52.580;9.734;2023-07-16T01:43:50;100578.00;;;20.34;74.18
75192;BME280;63771;52.580;9.734;2023-07-16T01:46:15;100566.09;;;20.40;73.78
75192;BME280;63771;52.580;9.734;2023-07-16T01:48:41;100564.09;;;20.32;74.06
75192;BME280;63771;52.580;9.734;2023-07-16T01:51:06;100564.09;;;20.32;74.03
75192;BME280;63771;52.580;9.734;2023-07-16T01:53:31;100559.94;;;20.36;73.94
75192;BME280;63771;52.580;9.734;2023-07-16T01:55:57;100561.81;;;20.40;74.20
75192;BME280;63771;52.580;9.734;2023-07-16T01:58:22;100553.28;;;20.43;73.83
75192;BME280;63771;52.580;9.734;2023-07-16T02:00:50;100547.13;;;20.41;73.93
75192;BME280;63771;52.580;9.734;2023-07-16T02:03:15;100543.75;;;20.42;73.91
75192;BME280;63771;52.580;9.734;2023-07-16T02:05:40;100535.72;;;20.36;73.96
75192;BME280;63771;52.580;9.734;2023-07-16T02:08:06;100545.28;;;20.37;73.77
75192;BME280;63771;52.580;9.734;2023-07-16T02:10:31;100545.13;;;20.33;74.33
75192;BME280;63771;52.580;9.734;2023-07-16T02:12:57;100545.78;;;20.28;74.15
75192;BME280;63771;52.580;9.734;2023-07-16T02:15:22;100549.94;;;20.24;74.93
75192;BME280;63771;52.580;9.734;2023-07-16T02:17:47;100538.69;;;20.24;74.72
75192;BME280;63771;52.580;9.734;2023-07-16T02:20:13;100532.78;;;20.26;74.36
75192;BME280;63771;52.580;9.734;2023-07-16T02:22:39;100538.06;;;20.29;74.75
75192;BME280;63771;52.580;9.734;2023-07-16T02:25:04;100540.84;;;20.34;74.59
75192;BME280;63771;52.580;9.734;2023-07-16T02:27:30;100541.63;;;20.31;74.96
75192;BME280;63771;52.580;9.734;2023-07-16T02:29:55;100553.59;;;20.29;74.63
75192;BME280;63771;52.580;9.734;2023-07-16T02:32:21;100548.44;;;20.29;74.71
75192;BME280;63771;52.580;9.734;2023-07-16T02:34:46;100555.38;;;20.30;74.78
75192;BME280;63771;52.580;9.734;2023-07-16T02:37:11;100552.78;;;20.30;74.95
75192;BME280;63771;52.580;9.734;2023-07-16T02:39:38;100551.91;;;20.30;74.82
75192;BME280;63771;52.580;9.734;2023-07-16T02:42:04;100539.81;;;20.30;75.22
75192;BME280;63771;52.580;9.734;2023-07-16T02:44:30;100539.91;;;20.32;75.40
75192;BME280;63771;52.580;9.734;2023-07-16T02:46:55;100553.59;;;20.29;75.25
75192;BME280;63771;52.580;9.734;2023-07-16T02:49:20;100558.03;;;20.32;75.50
75192;BME280;63771;52.580;9.734;2023-07-16T02:51:46;100555.44;;;20.32;75.59
75192;BME280;63771;52.580;9.734;2023-07-16T02:54:11;100567.44;;;20.30;75.74
75192;BME280;63771;52.580;9.734;2023-07-16T02:56:36;100559.66;;;20.30;75.51
75192;BME280;63771;52.580;9.734;2023-07-16T02:59:02;100566.69;;;20.32;75.56
75192;BME280;63771;52.580;9.734;2023-07-16T03:01:27;100565.72;;;20.30;76.22
75192;BME280;63771;52.580;9.734;2023-07-16T03:03:52;100568.31;;;20.30;75.88
75192;BME280;63771;52.580;9.734;2023-07-16T03:06:18;100567.53;;;20.31;75.94
75192;BME280;63771;52.580;9.734;2023-07-16T03:08:43;100563.88;;;20.26;75.79
75192;BME280;63771;52.580;9.734;2023-07-16T03:11:11;100565.72;;;20.30;76.09
75192;BME280;63771;52.580;9.734;2023-07-16T03:13:37;100568.31;;;20.30;76.16
75192;BME280;63771;52.580;9.734;2023-07-16T03:16:02;100573.59;;;20.32;76.39
75192;BME280;63771;52.580;9.734;2023-07-16T03:18:29;100583.97;;;20.32;76.59
75192;BME280;63771;52.580;9.734;2023-07-16T03:20:55;100583.09;;;20.31;76.38
75192;BME280;63771;52.580;9.734;2023-07-16T03:23:21;100589.19;;;20.33;76.59
75192;BME280;63771;52.580;9.734;2023-07-16T03:25:46;100586.47;;;20.30;76.70
75192;BME280;63771;52.580;9.734;2023-07-16T03:28:12;100588.25;;;20.31;76.25
75192;BME280;63771;52.580;9.734;2023-07-16T03:30:38;100592.63;;;20.32;76.61
75192;BME280;63771;52.580;9.734;2023-07-16T03:33:04;100586.38;;;20.27;76.67
75192;BME280;63771;52.580;9.734;2023-07-16T03:35:30;100592.47;;;20.29;76.92
75192;BME280;63771;52.580;9.734;2023-07-16T03:37:55;100599.31;;;20.27;77.02
75192;BME280;63771;52.580;9.734;2023-07-16T03:40:24;100610.50;;;20.26;77.28
75192;BME280;63771;52.580;9.734;2023-07-16T03:42:49;100607.72;;;20.22;76.77
75192;BME280;63771;52.580;9.734;2023-07-16T03:45:15;100597.91;;;20.15;76.52
75192;BME280;63771;52.580;9.734;2023-07-16T03:47:40;100604.16;;;20.20;76.48
75192;BME280;63771;52.580;9.734;2023-07-16T03:50:07;100611.88;;;20.18;76.81
75192;BME280;63771;52.580;9.734;2023-07-16T03:52:32;100605.56;;;20.12;77.19
75192;BME280;63771;52.580;9.734;2023-07-16T03:54:58;100606.31;;;20.09;77.54
75192;BME280;63771;52.580;9.734;2023-07-16T03:57:23;100619.84;;;20.02;77.76
75192;BME280;63771;52.580;9.734;2023-07-16T03:59:49;100613.44;;;19.94;78.15
75192;BME280;63771;52.580;9.734;2023-07-16T04:02:14;100624.81;;;19.97;78.26
75192;BME280;63771;52.580;9.734;2023-07-16T04:04:39;100633.38;;;19.95;78.28
75192;BME280;63771;52.580;9.734;2023-07-16T04:07:05;100638.34;;;19.90;78.04
75192;BME280;63771;52.580;9.734;2023-07-16T04:09:30;100635.63;;;19.87;78.43
75192;BME280;63771;52.580;9.734;2023-07-16T04:11:56;100625.78;;;19.78;78.57
75192;BME280;63771;52.580;9.734;2023-07-16T04:14:21;100640.69;;;19.84;78.07
75192;BME280;63771;52.580;9.734;2023-07-16T04:16:46;100643.94;;;19.80;78.39
75192;BME280;63771;52.580;9.734;2023-07-16T04:19:12;100656.97;;;19.81;78.08
75192;BME280;63771;52.580;9.734;2023-07-16T04:21:37;100644.84;;;19.80;78.29
75192;BME280;63771;52.580;9.734;2023-07-16T04:24:05;100661.31;;;19.83;78.56
75192;BME280;63771;52.580;9.734;2023-07-16T04:26:30;100660.38;;;19.80;78.42
75192;BME280;63771;52.580;9.734;2023-07-16T04:28:55;100655.19;;;19.80;78.46
75192;BME280;63771;52.580;9.734;2023-07-16T04:31:21;100662.91;;;19.79;77.86
75192;BME280;63771;52.580;9.734;2023-07-16T04:33:46;100658.59;;;19.79;78.64
75192;BME280;63771;52.580;9.734;2023-07-16T04:36:11;100671.56;;;19.79;78.75
75192;BME280;63771;52.580;9.734;2023-07-16T04:38:37;100668.97;;;19.79;79.12
75192;BME280;63771;52.580;9.734;2023-07-16T04:41:02;100669.78;;;19.78;78.62
75192;BME280;63771;52.580;9.734;2023-07-16T04:43:27;100672.38;;;19.78;78.66
75192;BME280;63771;52.580;9.734;2023-07-16T04:45:53;100687.97;;;19.80;78.42
75192;BME280;63771;52.580;9.734;2023-07-16T04:48:18;100682.84;;;19.81;78.96
75192;BME280;63771;52.580;9.734;2023-07-16T04:50:43;100689.69;;;19.79;78.24
75192;BME280;63771;52.580;9.734;2023-07-16T04:53:09;100705.31;;;19.83;78.25
75192;BME280;63771;52.580;9.734;2023-07-16T04:55:36;100701.78;;;19.80;78.25
75192;BME280;63771;52.580;9.734;2023-07-16T04:58:02;100714.75;;;19.80;77.95
75192;BME280;63771;52.580;9.734;2023-07-16T05:00:27;100717.34;;;19.80;78.14
75192;BME280;63771;52.580;9.734;2023-07-16T05:02:52;100719.09;;;19.81;77.87
75192;BME280;63771;52.580;9.734;2023-07-16T05:05:18;100721.75;;;19.83;78.38
75192;BME280;63771;52.580;9.734;2023-07-16T05:07:43;100718.44;;;19.86;78.09
75192;BME280;63771;52.580;9.734;2023-07-16T05:10:09;100715.69;;;19.83;77.71
75192;BME280;63771;52.580;9.734;2023-07-16T05:12:34;100707.72;;;19.78;77.39
75192;BME280;63771;52.580;9.734;2023-07-16T05:14:59;100716.72;;;19.86;77.59
75192;BME280;63771;52.580;9.734;2023-07-16T05:17:25;100724.69;;;19.91;77.76
75192;BME280;63771;52.580;9.734;2023-07-16T05:19:50;100728.31;;;19.94;77.42
75192;BME280;63771;52.580;9.734;2023-07-16T05:22:15;100724.75;;;19.92;77.70
75192;BME280;63771;52.580;9.734;2023-07-16T05:24:41;100724.81;;;19.94;77.31
75192;BME280;63771;52.580;9.734;2023-07-16T05:27:06;100729.19;;;19.95;77.98
75192;BME280;63771;52.580;9.734;2023-07-16T05:29:31;100729.25;;;19.96;78.20
75192;BME280;63771;52.580;9.734;2023-07-16T05:31:57;100727.34;;;19.92;77.17
75192;BME280;63771;52.580;9.734;2023-07-16T05:34:22;100731.06;;;19.99;77.13
75192;BME280;63771;52.580;9.734;2023-07-16T05:36:47;100734.66;;;20.01;77.57
75192;BME280;63771;52.580;9.734;2023-07-16T05:39:13;100728.63;;;20.02;77.15
75192;BME280;63771;52.580;9.734;2023-07-16T05:41:39;100736.56;;;20.05;77.10
75192;BME280;63771;52.580;9.734;2023-07-16T05:44:04;100733.00;;;20.03;76.29
75192;BME280;63771;52.580;9.734;2023-07-16T05:46:30;100739.22;;;20.06;76.43
75192;BME280;63771;52.580;9.734;2023-07-16T05:48:55;100741.03;;;20.09;76.29
75192;BME280;63771;52.580;9.734;2023-07-16T05:51:20;100742.94;;;20.13;76.35
75192;BME280;63771;52.580;9.734;2023-07-16T05:53:46;100747.38;;;20.16;77.00
75192;BME280;63771;52.580;9.734;2023-07-16T05:56:12;100756.97;;;20.18;76.44
75192;BME280;63771;52.580;9.734;2023-07-16T05:58:38;100754.41;;;20.18;75.55
75192;BME280;63771;52.580;9.734;2023-07-16T06:01:04;100760.66;;;20.23;75.02
75192;BME280;63771;52.580;9.734;2023-07-16T06:03:29;100764.13;;;20.24;74.89
75192;BME280;63771;52.580;9.734;2023-07-16T06:05:55;100761.59;;;20.25;74.28
75192;BME280;63771;52.580;9.734;2023-07-16T06:08:20;100766.47;;;20.18;74.64
75192;BME280;63771;52.580;9.734;2023-07-16T06:10:45;100766.19;;;20.12;74.35
75192;BME280;63771;52.580;9.734;2023-07-16T06:13:11;100767.09;;;20.12;74.92
75192;BME280;63771;52.580;9.734;2023-07-16T06:15:36;100773.28;;;20.16;74.26
75192;BME280;63771;52.580;9.734;2023-07-16T06:18:02;100769.81;;;20.15;74.25
75192;BME280;63771;52.580;9.734;2023-07-16T06:20:27;100769.13;;;20.19;74.14
75192;BME280;63771;52.580;9.734;2023-07-16T06:22:54;100771.91;;;20.24;75.05
75192;BME280;63771;52.580;9.734;2023-07-16T06:25:19;100764.06;;;20.22;73.63
75192;BME280;63771;52.580;9.734;2023-07-16T06:27:44;100778.22;;;20.30;73.36
75192;BME280;63771;52.580;9.734;2023-07-16T06:30:09;100775.06;;;20.36;72.96
75192;BME280;63771;52.580;9.734;2023-07-16T06:32:35;100778.66;;;20.40;73.25
75192;BME280;63771;52.580;9.734;2023-07-16T06:35:00;100775.38;;;20.44;71.88
75192;BME280;63771;52.580;9.734;2023-07-16T06:37:26;100779.97;;;20.49;72.07
75192;BME280;63771;52.580;9.734;2023-07-16T06:39:51;100788.75;;;20.53;71.49
75192;BME280;63771;52.580;9.734;2023-07-16T06:42:16;100770.88;;;20.59;71.50
75192;BME280;63771;52.580;9.734;2023-07-16T06:44:42;100787.56;;;20.66;71.80
75192;BME280;63771;52.580;9.734;2023-07-16T06:47:07;100785.16;;;20.70;71.40
75192;BME280;63771;52.580;9.734;2023-07-16T06:49:32;100786.19;;;20.74;69.73
75192;BME280;63771;52.580;9.734;2023-07-16T06:52:00;100785.41;;;20.76;69.21
75192;BME280;63771;52.580;9.734;2023-07-16T06:54:26;100797.75;;;20.82;70.45
75192;BME280;63771;52.580;9.734;2023-07-16T06:56:51;100790.16;;;20.87;69.61
75192;BME280;63771;52.580;9.734;2023-07-16T06:59:17;100791.25;;;20.92;69.66
75192;BME280;63771;52.580;9.734;2023-07-16T07:01:42;100795.75;;;20.96;69.17
75192;BME280;63771;52.580;9.734;2023-07-16T07:04:07;100799.16;;;20.95;68.88
75192;BME280;63771;52.580;9.734;2023-07-16T07:06:33;100800.97;;;20.97;68.10
75192;BME280;63771;52.580;9.734;2023-07-16T07:08:58;100796.44;;;20.92;67.59
75192;BME280;63771;52.580;9.734;2023-07-16T07:11:23;100802.75;;;20.98;67.91
75192;BME280;63771;52.580;9.734;2023-07-16T07:13:51;100801.75;;;20.95;68.61
75192;BME280;63771;52.580;9.734;2023-07-16T07:16:16;100801.88;;;20.98;67.60
75192;BME280;63771;52.580;9.734;2023-07-16T07:18:42;100813.41;;;21.04;66.92
75192;BME280;63771;52.580;9.734;2023-07-16T07:21:07;100802.19;;;21.05;66.73
75192;BME280;63771;52.580;9.734;2023-07-16T07:23:33;100799.78;;;21.10;64.26
75192;BME280;63771;52.580;9.734;2023-07-16T07:25:58;100816.34;;;21.14;64.00
75192;BME280;63771;52.580;9.734;2023-07-16T07:28:24;100810.38;;;21.15;63.36
75192;BME280;63771;52.580;9.734;2023-07-16T07:30:50;100813.59;;;21.09;62.42
75192;BME280;63771;52.580;9.734;2023-07-16T07:33:15;100812.63;;;21.07;63.64
75192;BME280;63771;52.580;9.734;2023-07-16T07:35:40;100815.41;;;21.11;64.25
75192;BME280;63771;52.580;9.734;2023-07-16T07:38:06;100801.50;;;21.09;63.53
75192;BME280;63771;52.580;9.734;2023-07-16T07:40:31;100812.13;;;21.16;62.88
75192;BME280;63771;52.580;9.734;2023-07-16T07:42:56;100806.94;;;21.16;59.11
75192;BME280;63771;52.580;9.734;2023-07-16T07:45:23;100819.13;;;21.18;56.03
75192;BME280;63771;52.580;9.734;2023-07-16T07:47:49;100801.22;;;21.24;56.63
75192;BME280;63771;52.580;9.734;2023-07-16T07:50:14;100810.25;;;21.32;57.65
75192;BME280;63771;52.580;9.734;2023-07-16T07:52:40;100819.22;;;21.41;59.66
75192;BME280;63771;52.580;9.734;2023-07-16T07:55:06;100796.84;;;21.44;60.87
75192;BME280;63771;52.580;9.734;2023-07-16T07:57:31;100816.28;;;21.54;59.99
75192;BME280;63771;52.580;9.734;2023-07-16T07:59:56;100816.50;;;21.60;55.36
75192;BME280;63771;52.580;9.734;2023-07-16T08:02:23;100818.53;;;21.67;55.52
75192;BME280;63771;52.580;9.734;2023-07-16T08:04:53;100825.50;;;21.68;52.27
75192;BME280;63771;52.580;9.734;2023-07-16T08:07:18;100830.78;;;21.71;54.35
75192;BME280;63771;52.580;9.734;2023-07-16T08:09:44;100834.22;;;21.70;54.75
75192;BME280;63771;52.580;9.734;2023-07-16T08:12:10;100824.91;;;21.75;54.02
75192;BME280;63771;52.580;9.734;2023-07-16T08:14:35;100829.25;;;21.76;51.46
75192;BME280;63771;52.580;9.734;2023-07-16T08:17:00;100840.47;;;21.75;50.47
75192;BME280;63771;52.580;9.734;2023-07-16T08:19:26;100841.31;;;21.74;49.42
75192;BME280;63771;52.580;9.734;2023-07-16T08:21:51;100843.31;;;21.81;50.42
75192;BME280;63771;52.580;9.734;2023-07-16T08:24:17;100849.47;;;21.83;50.44
75192;BME280;63771;52.580;9.734;2023-07-16T08:26:42;100848.75;;;21.87;49.75
75192;BME280;63771;52.580;9.734;2023-07-16T08:29:07;100852.44;;;21.93;51.58
75192;BME280;63771;52.580;9.734;2023-07-16T08:31:33;100853.41;;;21.96;49.56
75192;BME280;63771;52.580;9.734;2023-07-16T08:33:58;100855.28;;;22.00;47.97
75192;BME280;63771;52.580;9.734;2023-07-16T08:36:24;100863.28;;;22.05;48.16
75192;BME280;63771;52.580;9.734;2023-07-16T08:38:50;100859.84;;;22.06;49.16
75192;BME280;63771;52.580;9.734;2023-07-16T08:41:15;100849.41;;;22.04;47.42
75192;BME280;63771;52.580;9.734;2023-07-16T08:43:41;100854.63;;;22.06;49.43
75192;BME280;63771;52.580;9.734;2023-07-16T08:46:08;100861.59;;;22.07;49.58
75192;BME280;63771;52.580;9.734;2023-07-16T08:48:33;100850.38;;;22.08;48.54
75192;BME280;63771;52.580;9.734;2023-07-16T08:51:02;100866.03;;;22.09;48.45
75192;BME280;63771;52.580;9.734;2023-07-16T08:53:28;100856.53;;;22.10;49.38
75192;BME280;63771;52.580;9.734;2023-07-16T08:55:54;100865.81;;;22.03;48.29
75192;BME280;63771;52.580;9.734;2023-07-16T08:58:23;100869.97;;;21.98;47.87
75192;BME280;63771;52.580;9.734;2023-07-16T09:00:48;100870.09;;;22.03;48.18
75192;BME280;63771;52.580;9.734;2023-07-16T09:03:14;100864.91;;;22.03;48.51
75192;BME280;63771;52.580;9.734;2023-07-16T09:05:44;100868.34;;;22.02;48.52
75192;BME280;63771;52.580;9.734;2023-07-16T09:08:10;100862.50;;;22.07;49.34
75192;BME280;63771;52.580;9.734;2023-07-16T09:10:36;100869.59;;;22.11;49.51
75192;BME280;63771;52.580;9.734;2023-07-16T09:13:01;100867.91;;;22.12;49.80
75192;BME280;63771;52.580;9.734;2023-07-16T09:15:28;100873.25;;;22.17;49.57
75192;BME280;63771;52.580;9.734;2023-07-16T09:20:19;100869.13;;;22.22;48.18
75192;BME280;63771;52.580;9.734;2023-07-16T09:22:44;100863.09;;;22.23;48.53
75192;BME280;63771;52.580;9.734;2023-07-16T09:25:11;100871.06;;;22.27;49.05
75192;BME280;63771;52.580;9.734;2023-07-16T09:27:36;100865.88;;;22.27;48.22
75192;BME280;63771;52.580;9.734;2023-07-16T09:30:04;100866.88;;;22.31;46.19
75192;BME280;63771;52.580;9.734;2023-07-16T09:32:38;100880.94;;;22.36;48.58
75192;BME280;63771;52.580;9.734;2023-07-16T09:35:09;100873.19;;;22.37;48.08
75192;BME280;63771;52.580;9.734;2023-07-16T09:37:37;100871.63;;;22.43;45.67
75192;BME280;63771;52.580;9.734;2023-07-16T09:40:04;100876.06;;;22.45;45.39
75192;BME280;63771;52.580;9.734;2023-07-16T09:42:32;100881.31;;;22.47;47.30
75192;BME280;63771;52.580;9.734;2023-07-16T09:45:01;100872.81;;;22.51;47.94
75192;BME280;63771;52.580;9.734;2023-07-16T09:47:26;100884.25;;;22.56;46.33
75192;BME280;63771;52.580;9.734;2023-07-16T09:49:51;100875.97;;;22.66;47.93
75192;BME280;63771;52.580;9.734;2023-07-16T09:52:17;100892.53;;;22.70;46.17
75192;BME280;63771;52.580;9.734;2023-07-16T09:54:45;100877.97;;;22.75;46.13
75192;BME280;63771;52.580;9.734;2023-07-16T09:57:10;100881.47;;;22.75;45.12
75192;BME280;63771;52.580;9.734;2023-07-16T09:59:36;100897.06;;;22.75;46.99
75192;BME280;63771;52.580;9.734;2023-07-16T10:02:01;100891.06;;;22.76;47.08
75192;BME280;63771;52.580;9.734;2023-07-16T10:04:37;100894.72;;;22.81;47.66
75192;BME280;63771;52.580;9.734;2023-07-16T10:07:04;100893.88;;;22.82;47.76
75192;BME280;63771;52.580;9.734;2023-07-16T10:09:38;100894.84;;;22.86;48.55
75192;BME280;63771;52.580;9.734;2023-07-16T10:14:58;100883.78;;;22.91;46.76
75192;BME280;63771;52.580;9.734;2023-07-16T10:17:25;100875.38;;;22.99;47.88
75192;BME280;63771;52.580;9.734;2023-07-16T10:20:09;100892.09;;;23.05;45.45
75192;BME280;63771;52.580;9.734;2023-07-16T10:22:42;100887.69;;;23.03;45.82
75192;BME280;63771;52.580;9.734;2023-07-16T10:25:10;100891.31;;;23.08;46.73
75192;BME280;63771;52.580;9.734;2023-07-16T10:27:48;100882.88;;;23.15;45.70
75192;BME280;63771;52.580;9.734;2023-07-16T10:30:14;100883.78;;;23.17;45.43
75192;BME280;63771;52.580;9.734;2023-07-16T10:32:41;100883.94;;;23.22;45.41
75192;BME280;63771;52.580;9.734;2023-07-16T10:35:07;100884.94;;;23.25;46.30
75192;BME280;63771;52.580;9.734;2023-07-16T10:37:36;100889.72;;;23.38;47.71
75192;BME280;63771;52.580;9.734;2023-07-16T10:40:03;100881.31;;;23.47;46.18
75192;BME280;63771;52.580;9.734;2023-07-16T10:42:29;100896.41;;;23.57;47.43
75192;BME280;63771;52.580;9.734;2023-07-16T10:44:58;100908.88;;;23.66;46.09
75192;BME280;63771;52.580;9.734;2023-07-16T10:47:24;100892.53;;;23.70;44.22
75192;BME280;63771;52.580;9.734;2023-07-16T10:49:51;100904.16;;;23.81;43.47
75192;BME280;63771;52.580;9.734;2023-07-16T10:52:23;100903.50;;;23.88;43.74
75192;BME280;63771;52.580;9.734;2023-07-16T10:54:50;100901.25;;;24.01;42.02
75192;BME280;63771;52.580;9.734;2023-07-16T10:57:22;100902.97;;;24.00;42.51
75192;BME280;63771;52.580;9.734;2023-07-16T10:59:48;100906.41;;;23.98;41.81
75192;BME280;63771;52.580;9.734;2023-07-16T11:02:16;100908.16;;;23.99;41.13
75192;BME280;63771;52.580;9.734;2023-07-16T11:04:43;100913.28;;;23.95;42.17
75192;BME280;63771;52.580;9.734;2023-07-16T11:07:11;100905.44;;;23.95;40.76
75192;BME280;63771;52.580;9.734;2023-07-16T11:09:47;100907.25;;;23.97;43.11
75192;BME280;63771;52.580;9.734;2023-07-16T11:12:15;100911.53;;;23.96;40.47
75192;BME280;63771;52.580;9.734;2023-07-16T11:14:54;100904.41;;;23.90;39.69
75192;BME280;63771;52.580;9.734;2023-07-16T11:17:21;100920.72;;;23.83;40.98
75192;BME280;63771;52.580;9.734;2023-07-16T11:19:50;100905.66;;;23.75;39.82
75192;BME280;63771;52.580;9.734;2023-07-16T11:22:16;100903.88;;;23.72;40.42
75192;BME280;63771;52.580;9.734;2023-07-16T11:27:20;100914.44;;;23.77;42.60
75192;BME280;63771;52.580;9.734;2023-07-16T11:29:51;100914.53;;;23.80;42.62
75192;BME280;63771;52.580;9.734;2023-07-16T11:32:35;100913.91;;;23.87;43.97
75192;BME280;63771;52.580;9.734;2023-07-16T11:35:03;100916.50;;;23.87;42.74
75192;BME280;63771;52.580;9.734;2023-07-16T11:37:30;100924.50;;;23.93;42.52
75192;BME280;63771;52.580;9.734;2023-07-16T11:39:57;100919.38;;;23.96;41.38
75192;BME280;63771;52.580;9.734;2023-07-16T11:42:43;100910.81;;;24.00;41.60
75192;BME280;63771;52.580;9.734;2023-07-16T11:45:17;100917.59;;;23.95;41.70
75192;BME280;63771;52.580;9.734;2023-07-16T11:47:43;100920.22;;;23.95;41.53
75192;BME280;63771;52.580;9.734;2023-07-16T11:50:08;100918.59;;;23.99;43.97
75192;BME280;63771;52.580;9.734;2023-07-16T11:52:34;100910.94;;;24.05;42.05
75192;BME280;63771;52.580;9.734;2023-07-16T11:54:59;100906.72;;;24.08;40.62
75192;BME280;63771;52.580;9.734;2023-07-16T11:57:25;100920.94;;;24.18;43.62
75192;BME280;63771;52.580;9.734;2023-07-16T11:59:50;100917.53;;;24.22;43.30
75192;BME280;63771;52.580;9.734;2023-07-16T12:02:15;100923.66;;;24.23;42.24
75192;BME280;63771;52.580;9.734;2023-07-16T12:04:41;100917.53;;;24.22;40.37
75192;BME280;63771;52.580;9.734;2023-07-16T12:07:07;100932.38;;;24.23;41.84
75192;BME280;63771;52.580;9.734;2023-07-16T12:09:32;100936.41;;;24.12;40.56
75192;BME280;63771;52.580;9.734;2023-07-16T12:11:59;100937.28;;;24.12;42.35
75192;BME280;63771;52.580;9.734;2023-07-16T12:14:25;100932.31;;;24.21;42.78
75192;BME280;63771;52.580;9.734;2023-07-16T12:16:50;100932.41;;;24.25;40.90
75192;BME280;63771;52.580;9.734;2023-07-16T12:19:16;100929.38;;;24.11;40.80
75192;BME280;63771;52.580;9.734;2023-07-16T12:21:41;100926.78;;;24.11;40.61
75192;BME280;63771;52.580;9.734;2023-07-16T12:24:06;100931.44;;;24.21;43.43
75192;BME280;63771;52.580;9.734;2023-07-16T12:26:32;100930.81;;;24.30;40.62
75192;BME280;63771;52.580;9.734;2023-07-16T12:28:57;100942.13;;;24.30;42.33
75192;BME280;63771;52.580;9.734;2023-07-16T12:31:22;100937.13;;;24.36;43.13
75192;BME280;63771;52.580;9.734;2023-07-16T12:33:48;100947.50;;;24.35;39.88
75192;BME280;63771;52.580;9.734;2023-07-16T12:36:14;100945.66;;;24.32;40.00
75192;BME280;63771;52.580;9.734;2023-07-16T12:38:39;100931.59;;;24.27;39.32
75192;BME280;63771;52.580;9.734;2023-07-16T12:41:05;100943.44;;;24.16;41.03
75192;BME280;63771;52.580;9.734;2023-07-16T12:43:31;100948.84;;;24.22;41.95
75192;BME280;63771;52.580;9.734;2023-07-16T12:46:00;100953.31;;;24.26;39.55
75192;BME280;63771;52.580;9.734;2023-07-16T12:48:26;100950.63;;;24.23;40.75
75192;BME280;63771;52.580;9.734;2023-07-16T12:50:51;100954.16;;;24.25;40.59
75192;BME280;63771;52.580;9.734;2023-07-16T12:53:16;100967.19;;;24.25;40.51
75192;BME280;63771;52.580;9.734;2023-07-16T12:55:42;100965.59;;;24.29;39.86
75192;BME280;63771;52.580;9.734;2023-07-16T12:58:07;100953.56;;;24.34;40.64
75192;BME280;63771;52.580;9.734;2023-07-16T13:00:32;100958.00;;;24.36;39.68